Aérodrome :
LOGIN :

S'inscrire | Disclaimer

   EN    FR    IT 

 










Légende :    VFR   VFR Marginal   IFR   IFR Intensif   IFR Très Intensif
Visi : 
Plafond : 
>= 8 km
>= 3000ft
5 à 8 km
1000 à 3000 ft
1500m à 5 km
500 à 1000 ft
800 à 1500m
200 à 500 ft
< 800m
< 200 ft
Symboles :   Orages  Brouillard  Fortes neiges  Fortes précipitations  Vent > 20 kt
SIGMETs :   Divers  Orages  Givrage  Turbulence  Onde Orograph.  Cendres Volcan.






- Altitude de l'aérodrome : 333 ft


LIPL - Ghedi Brescia (Mil)

DERNIER METAR :
  • 060455Z 06001KT 5000 BR FEW050 M00/M01 Q1025 RMK FEW VIS MIN 5000 WIND THR31 /////KT WIND THR13 02001KT WHT

METARs EXPIRÉS :
  • 060355Z 28001KT 5000 BR FEW050 M00/M01 Q1025 RMK FEW VIS MIN 5000 WIND THR31 /////KT WIND THR13 31001KT WHT
  • 060255Z 31001KT 2000 BR SCT003 00/M01 Q1025 RMK SCT VIS MIN 2000 WIND THR31 /////KT WIND THR13 33001KT YLO

TAF COR TAF LIPL
Valide du 06 à 06h jusqu'au 06 à 15h UTC


060500Z 0606/0615 VRB03KT 9999 FEW050
TEMPO 0606/0608 3000 BR



MET'MAP, la Météo Aéronautique d'un coup d'oeil ! - Copyright ORBIFLY Décembre 2007 - Disclaimer

ORBIFLY MET'MAP TEAM :

Programmation & Développement : Alexandra Zaïnal
Sur une idée originale de : Baudouin d'Aumeries
Assistance à la programmation : Marc-Olivier Méhu
Soutien technique & logistique : Manuel Goepfert

Contact : metmap@orbifly.com




SOURCES & CREDITS :

   NOAA